createdAt,value
2018-02-22T00:01:18.904Z,18.40
2018-02-22T00:03:47.811Z,17.83
2018-02-22T00:06:16.123Z,18.13
2018-02-22T00:08:44.337Z,18.40
2018-02-22T00:11:12.582Z,19.53
2018-02-22T00:13:40.893Z,17.97
2018-02-22T00:16:09.146Z,20.30
2018-02-22T00:18:38.233Z,18.17
2018-02-22T00:21:07.390Z,17.87
2018-02-22T00:23:35.642Z,17.37
2018-02-22T00:26:03.929Z,18.57
2018-02-22T00:28:32.197Z,17.93
2018-02-22T00:31:00.450Z,18.77
2018-02-22T00:33:29.559Z,17.90
2018-02-22T00:35:57.811Z,18.50
2018-02-22T00:38:27.101Z,20.80
2018-02-22T00:40:55.367Z,17.43
2018-02-22T00:43:23.686Z,18.73
2018-02-22T00:45:52.770Z,18.87
2018-02-22T00:48:22.295Z,17.87
2018-02-22T00:50:50.546Z,19.57
2018-02-22T00:53:19.646Z,17.77
2018-02-22T00:55:48.768Z,18.87
2018-02-22T00:58:17.101Z,19.03
2018-02-22T01:00:45.312Z,17.87
2018-02-22T01:03:13.581Z,18.70
2018-02-22T01:05:41.834Z,17.37
2018-02-22T01:08:10.321Z,19.30
2018-02-22T01:10:39.505Z,16.80
2018-02-22T01:13:07.704Z,17.40
2018-02-22T01:15:36.058Z,18.97
2018-02-22T01:18:05.974Z,19.90
2018-02-22T01:20:34.172Z,16.73
2018-02-22T01:23:02.697Z,18.90
2018-02-22T01:25:30.976Z,18.47
2018-02-22T01:27:59.248Z,17.57
2018-02-22T01:30:28.129Z,18.20
2018-02-22T01:32:56.449Z,19.03
2018-02-22T01:35:24.689Z,17.23
2018-02-22T01:37:52.973Z,17.80
2018-02-22T01:40:21.254Z,15.87
2018-02-22T01:42:49.505Z,17.87
2018-02-22T01:45:17.764Z,18.17
2018-02-22T01:47:46.026Z,17.73
2018-02-22T01:50:14.294Z,15.43
2018-02-22T01:52:43.329Z,17.93
2018-02-22T01:55:11.564Z,17.60
2018-02-22T01:57:39.821Z,17.20
2018-02-22T02:00:09.889Z,19.50
2018-02-22T02:02:38.159Z,17.30
2018-02-22T02:05:06.426Z,17.30
2018-02-22T02:07:34.721Z,18.80
2018-02-22T02:10:03.005Z,17.97
2018-02-22T02:12:31.241Z,16.73
2018-02-22T02:15:00.353Z,17.77
2018-02-22T02:17:28.635Z,18.43
2018-02-22T02:19:56.872Z,18.67
2018-02-22T02:22:26.004Z,19.60
2018-02-22T02:24:54.285Z,17.80
2018-02-22T02:27:22.529Z,17.30
2018-02-22T02:29:51.618Z,19.00
2018-02-22T02:32:20.717Z,17.10
2018-02-22T02:34:49.766Z,16.77
2018-02-22T02:37:18.102Z,17.43
2018-02-22T02:39:47.207Z,17.50
2018-02-22T02:42:15.494Z,16.63
2018-02-22T02:44:43.781Z,18.80
2018-02-22T02:47:12.091Z,16.47
2018-02-22T02:49:40.587Z,19.60
2018-02-22T02:52:08.793Z,17.30
2018-02-22T02:54:37.068Z,17.20
2018-02-22T02:57:05.293Z,16.73
2018-02-22T02:59:37.410Z,18.97
2018-02-22T03:02:05.750Z,15.47
2018-02-22T03:04:34.136Z,17.20
2018-02-22T03:07:02.620Z,17.53
2018-02-22T03:09:31.644Z,19.13
2018-02-22T03:11:59.900Z,18.43
2018-02-22T03:14:28.279Z,16.90
2018-02-22T03:16:57.482Z,16.47
2018-02-22T03:19:25.782Z,17.90
2018-02-22T03:21:54.117Z,17.60
2018-02-22T03:24:22.514Z,17.10
2018-02-22T03:26:51.616Z,16.50
2018-02-22T03:29:19.890Z,16.03
2018-02-22T03:31:49.632Z,15.87
2018-02-22T03:34:17.921Z,16.97
2018-02-22T03:36:46.149Z,15.60
2018-02-22T03:39:14.648Z,15.90
2018-02-22T03:41:42.914Z,16.53
2018-02-22T03:44:11.263Z,16.97
2018-02-22T03:46:40.103Z,17.00
2018-02-22T03:49:08.367Z,17.33
2018-02-22T03:51:36.636Z,16.30
2018-02-22T03:54:04.883Z,17.20
2018-02-22T03:56:33.993Z,14.50
2018-02-22T03:59:03.959Z,16.60
2018-02-22T04:01:32.305Z,15.60
2018-02-22T04:04:00.680Z,14.90
2018-02-22T04:06:28.936Z,16.23
2018-02-22T04:08:57.211Z,15.37
2018-02-22T04:11:26.279Z,15.47
2018-02-22T04:13:56.328Z,15.30
2018-02-22T04:16:24.598Z,16.83
2018-02-22T04:18:52.976Z,16.33
2018-02-22T04:21:21.219Z,16.33
2018-02-22T04:23:49.561Z,15.50
2018-02-22T04:26:17.806Z,15.70
2018-02-22T04:28:46.919Z,16.10
2018-02-22T04:31:16.018Z,16.53
2018-02-22T04:33:45.391Z,15.60
2018-02-22T04:36:15.130Z,14.77
2018-02-22T04:38:43.514Z,15.67
2018-02-22T04:41:11.767Z,16.87
2018-02-22T04:43:40.782Z,14.17
2018-02-22T04:46:09.138Z,15.33
2018-02-22T04:48:38.173Z,16.00
2018-02-22T04:51:06.604Z,16.93
2018-02-22T04:53:34.866Z,15.70
2018-02-22T04:56:03.212Z,15.80
2018-02-22T04:58:31.537Z,16.63
2018-02-22T05:01:00.728Z,13.70
2018-02-22T05:03:28.989Z,15.77
2018-02-22T05:05:57.216Z,14.23
2018-02-22T05:08:25.470Z,15.00
2018-02-22T05:10:54.549Z,15.40
2018-02-22T05:13:22.958Z,14.70
2018-02-22T05:15:51.322Z,14.17
2018-02-22T05:18:20.424Z,15.13
2018-02-22T05:20:49.433Z,15.00
2018-02-22T05:23:17.712Z,14.23
2018-02-22T05:25:46.152Z,15.63
2018-02-22T05:28:14.381Z,14.30
2018-02-22T05:30:42.705Z,14.63
2018-02-22T05:33:10.941Z,15.80
2018-02-22T05:35:39.192Z,15.10
2018-02-22T05:38:07.687Z,14.80
2018-02-22T05:40:35.974Z,13.10
2018-02-22T05:43:04.225Z,14.80
2018-02-22T05:45:32.469Z,14.07
2018-02-22T05:48:00.751Z,13.63
2018-02-22T05:50:28.999Z,14.67
2018-02-22T05:52:57.373Z,15.93
2018-02-22T05:55:25.637Z,14.90
2018-02-22T05:57:54.677Z,15.03
2018-02-22T06:00:23.876Z,13.03
2018-02-22T06:02:52.115Z,14.83
2018-02-22T06:05:20.379Z,14.97
2018-02-22T06:07:48.679Z,14.83
2018-02-22T06:10:16.931Z,13.70
2018-02-22T06:12:45.190Z,14.80
2018-02-22T06:15:13.432Z,15.03
2018-02-22T06:17:42.585Z,14.60
2018-02-22T06:20:12.581Z,14.47
2018-02-22T06:22:40.809Z,16.03
2018-02-22T06:25:11.092Z,13.80
2018-02-22T06:27:39.458Z,14.43
2018-02-22T06:30:07.726Z,14.00
2018-02-22T06:32:36.001Z,15.20
2018-02-22T06:35:04.253Z,12.90
2018-02-22T06:37:33.463Z,14.10
2018-02-22T06:40:01.738Z,14.27
2018-02-22T06:42:29.990Z,13.23
2018-02-22T06:44:59.847Z,14.63
2018-02-22T06:47:28.133Z,14.87
2018-02-22T06:49:56.456Z,16.10
2018-02-22T06:52:25.486Z,14.73
2018-02-22T06:54:53.806Z,15.30
2018-02-22T06:57:22.077Z,15.37
2018-02-22T06:59:50.406Z,15.20
2018-02-22T07:02:18.678Z,17.07
2018-02-22T07:04:47.700Z,16.57
2018-02-22T07:07:16.065Z,14.73
2018-02-22T07:09:44.313Z,13.50
2018-02-22T07:12:13.351Z,15.90
2018-02-22T07:14:41.597Z,14.33
2018-02-22T07:17:10.167Z,14.50
2018-02-22T07:19:40.038Z,14.30
2018-02-22T07:22:08.393Z,15.53
2018-02-22T07:24:38.270Z,15.63
2018-02-22T07:27:07.377Z,14.47
2018-02-22T07:29:35.643Z,14.87
2018-02-22T07:32:04.677Z,16.00
2018-02-22T07:34:33.018Z,14.87
2018-02-22T07:37:02.151Z,15.23
2018-02-22T07:39:30.429Z,16.20
2018-02-22T07:41:58.755Z,15.30
2018-02-22T07:44:27.844Z,13.90
2018-02-22T07:46:56.080Z,15.00
2018-02-22T07:49:24.330Z,14.70
2018-02-22T07:51:53.701Z,14.63
2018-02-22T07:54:21.965Z,15.60
2018-02-22T07:56:50.377Z,14.87
2018-02-22T07:59:18.640Z,15.23
2018-02-22T08:01:47.829Z,15.53
2018-02-22T08:04:16.053Z,16.10
2018-02-22T08:06:44.294Z,15.27
2018-02-22T08:09:12.593Z,14.80
2018-02-22T08:11:40.945Z,16.00
2018-02-22T08:14:09.183Z,13.80
2018-02-22T08:16:37.450Z,14.73
2018-02-22T08:19:05.709Z,15.00
2018-02-22T08:21:35.585Z,15.63
2018-02-22T08:24:04.722Z,14.40
2018-02-22T08:26:32.964Z,13.60
2018-02-22T08:29:02.045Z,14.80
2018-02-22T08:31:32.216Z,14.80
2018-02-22T08:34:00.461Z,14.33
2018-02-22T08:36:29.551Z,15.10
2018-02-22T08:38:58.633Z,13.50
2018-02-22T08:41:27.810Z,14.30
2018-02-22T08:43:56.037Z,13.10
2018-02-22T08:46:24.292Z,14.57
2018-02-22T08:48:52.622Z,14.40
2018-02-22T08:51:20.977Z,14.43
2018-02-22T08:53:49.606Z,15.20
2018-02-22T08:56:17.895Z,14.97
2018-02-22T08:58:46.093Z,13.93
2018-02-22T09:01:14.390Z,13.93
2018-02-22T09:03:42.605Z,14.60
2018-02-22T09:06:10.934Z,13.80
2018-02-22T09:08:40.140Z,16.40
2018-02-22T09:11:08.496Z,13.60
2018-02-22T09:13:36.742Z,15.60
2018-02-22T09:16:05.121Z,15.30
2018-02-22T09:18:33.400Z,15.17
2018-02-22T09:21:01.609Z,15.80
2018-02-22T09:23:29.883Z,16.20
2018-02-22T09:25:58.238Z,14.70
2018-02-22T09:28:26.465Z,14.67
2018-02-22T09:30:56.197Z,15.27
2018-02-22T09:33:24.697Z,15.87
2018-02-22T09:35:53.023Z,15.67
2018-02-22T09:38:21.365Z,15.23
2018-02-22T09:40:50.609Z,16.30
2018-02-22T09:43:18.950Z,16.50
2018-02-22T09:45:47.214Z,13.73
2018-02-22T09:48:16.348Z,15.90
2018-02-22T09:50:44.684Z,13.83
2018-02-22T09:53:13.291Z,13.50
2018-02-22T09:55:41.585Z,13.40
2018-02-22T09:58:09.827Z,14.50
2018-02-22T10:00:38.114Z,14.63
2018-02-22T10:03:06.410Z,15.40
2018-02-22T10:05:34.774Z,15.87
2018-02-22T10:08:03.017Z,14.97
2018-02-22T10:10:31.312Z,14.00
2018-02-22T10:12:59.775Z,15.40
2018-02-22T10:15:27.991Z,14.60
2018-02-22T10:17:56.276Z,14.97
2018-02-22T10:20:24.527Z,13.63
2018-02-22T10:22:53.564Z,13.03
2018-02-22T10:25:21.916Z,15.47
2018-02-22T10:27:50.185Z,12.80
2018-02-22T10:30:18.531Z,12.70
2018-02-22T10:32:46.779Z,12.03
2018-02-22T10:35:15.021Z,14.80
2018-02-22T10:37:43.520Z,11.50
2018-02-22T10:40:11.811Z,11.60
2018-02-22T10:42:40.161Z,11.50
2018-02-22T10:45:08.507Z,11.93
2018-02-22T10:47:37.554Z,10.53
2018-02-22T10:50:05.838Z,11.13
2018-02-22T10:52:34.057Z,10.60
2018-02-22T10:55:02.459Z,10.53
2018-02-22T10:57:30.698Z,11.27
2018-02-22T10:59:58.971Z,9.70
2018-02-22T11:02:33.718Z,9.60
2018-02-22T11:05:02.074Z,9.20
2018-02-22T11:07:30.344Z,9.60
2018-02-22T11:09:58.628Z,10.20
2018-02-22T11:12:27.632Z,10.20
2018-02-22T11:14:55.933Z,10.67
2018-02-22T11:17:24.284Z,9.40
2018-02-22T11:19:53.393Z,7.97
2018-02-22T11:22:21.691Z,8.67
2018-02-22T11:24:51.050Z,8.40
2018-02-22T11:27:19.324Z,8.40
2018-02-22T11:29:47.544Z,8.13
2018-02-22T11:32:15.980Z,8.83
2018-02-22T11:34:44.280Z,7.57
2018-02-22T11:37:12.659Z,8.03
2018-02-22T11:39:41.681Z,9.80
2018-02-22T11:42:10.079Z,7.83
2018-02-22T11:44:38.417Z,7.50
2018-02-22T11:47:06.661Z,8.90
2018-02-22T11:49:34.888Z,8.53
2018-02-22T11:52:03.154Z,8.20
2018-02-22T11:54:31.409Z,9.10
2018-02-22T11:57:00.625Z,9.40
2018-02-22T11:59:29.045Z,8.67
2018-02-22T12:01:57.277Z,7.60
2018-02-22T12:04:25.754Z,7.93
2018-02-22T12:06:54.020Z,7.93
2018-02-22T12:09:23.861Z,8.40
2018-02-22T12:11:52.296Z,8.33
2018-02-22T12:14:20.512Z,8.90
2018-02-22T12:16:48.780Z,8.00
2018-02-22T12:19:17.030Z,9.40
2018-02-22T12:21:46.078Z,8.13
2018-02-22T12:24:15.379Z,7.70
2018-02-22T12:26:46.871Z,7.37
2018-02-22T12:29:19.240Z,7.50
2018-02-22T12:33:35.311Z,7.50
2018-02-22T12:36:03.715Z,7.03
2018-02-22T12:38:31.958Z,7.63
2018-02-22T12:41:00.328Z,7.90
2018-02-22T12:43:28.797Z,7.27
2018-02-22T12:45:57.763Z,7.13
2018-02-22T12:48:26.199Z,8.00
2018-02-22T12:50:56.108Z,7.10
2018-02-22T12:53:24.393Z,7.77
2018-02-22T12:55:52.756Z,9.10
2018-02-22T12:58:21.218Z,7.40
2018-02-22T13:00:49.670Z,6.57
2018-02-22T13:03:18.886Z,6.80
2018-02-22T13:05:47.263Z,8.47
2018-02-22T13:08:15.584Z,8.43
2018-02-22T13:10:44.031Z,7.67
2018-02-22T13:13:12.298Z,7.07
2018-02-22T13:15:40.550Z,6.33
2018-02-22T13:18:08.841Z,7.47
2018-02-22T13:20:37.204Z,6.40
2018-02-22T13:23:05.533Z,7.20
2018-02-22T13:25:33.757Z,7.17
2018-02-22T13:28:02.864Z,7.37
2018-02-22T13:30:31.169Z,8.60
2018-02-22T13:33:11.582Z,7.40
2018-02-22T13:35:40.488Z,7.40
2018-02-22T13:38:20.482Z,7.57
2018-02-22T13:40:49.647Z,7.13
2018-02-22T13:43:18.728Z,6.70
2018-02-22T13:45:47.018Z,8.30
2018-02-22T13:48:15.260Z,7.70
2018-02-22T13:50:55.512Z,7.90
2018-02-22T13:53:23.737Z,9.37
2018-02-22T13:55:52.002Z,7.73
2018-02-22T13:58:20.265Z,7.80
2018-02-22T14:01:01.363Z,8.73
2018-02-22T14:03:30.733Z,7.90
2018-02-22T14:05:59.939Z,8.40
2018-02-22T14:08:39.882Z,8.60
2018-02-22T14:11:08.187Z,8.60
2018-02-22T14:13:36.424Z,8.67
2018-02-22T14:16:04.684Z,8.17
2018-02-22T14:18:32.968Z,8.90
2018-02-22T14:21:01.374Z,8.40
2018-02-22T14:23:30.481Z,8.93
2018-02-22T14:25:59.617Z,8.43
2018-02-22T14:28:27.849Z,8.03
2018-02-22T14:30:56.866Z,8.43
2018-02-22T14:33:25.175Z,8.10
2018-02-22T14:35:53.457Z,8.60
2018-02-22T14:38:23.221Z,9.03
2018-02-22T14:40:52.279Z,8.07
2018-02-22T14:43:21.750Z,9.30
2018-02-22T14:45:54.004Z,8.40
2018-02-22T14:48:22.252Z,8.17
2018-02-22T14:50:50.511Z,10.30
2018-02-22T14:53:18.801Z,9.20
2018-02-22T14:55:47.888Z,8.23
2018-02-22T14:58:17.033Z,8.33
2018-02-22T15:00:51.085Z,9.03
2018-02-22T15:03:20.203Z,9.27
2018-02-22T15:05:49.343Z,8.27
2018-02-22T15:08:17.713Z,9.13
2018-02-22T15:10:47.210Z,8.60
2018-02-22T15:13:15.505Z,9.00
2018-02-22T15:15:43.765Z,8.53
2018-02-22T15:18:12.365Z,8.47
2018-02-22T15:20:40.740Z,8.73
2018-02-22T15:23:13.058Z,8.70
2018-02-22T15:25:41.284Z,8.50
2018-02-22T15:28:09.757Z,8.83
2018-02-22T15:30:38.647Z,10.90
2018-02-22T15:33:06.918Z,9.30
2018-02-22T15:35:35.257Z,8.93
2018-02-22T15:38:04.364Z,9.40
2018-02-22T15:40:33.441Z,8.87
2018-02-22T15:43:02.785Z,10.20
2018-02-22T15:45:31.379Z,9.70
2018-02-22T15:47:59.642Z,11.20
2018-02-22T15:50:27.962Z,10.57
2018-02-22T15:53:00.404Z,10.93
2018-02-22T15:55:28.714Z,11.70
2018-02-22T15:57:56.948Z,12.07
2018-02-22T16:00:25.314Z,10.00
2018-02-22T16:02:53.684Z,11.10
2018-02-22T16:05:23.922Z,10.93
2018-02-22T16:07:52.557Z,10.60
2018-02-22T16:10:22.414Z,10.20
2018-02-22T16:12:50.912Z,10.43
2018-02-22T16:15:19.198Z,10.70
2018-02-22T16:17:47.447Z,10.53
2018-02-22T16:20:15.715Z,10.80
2018-02-22T16:22:44.784Z,10.30
2018-02-22T16:25:14.446Z,11.07
2018-02-22T16:27:42.974Z,11.23
2018-02-22T16:30:12.080Z,11.23
2018-02-22T16:32:40.389Z,11.00
2018-02-22T16:35:09.133Z,12.27
2018-02-22T16:37:41.209Z,11.10
2018-02-22T16:40:11.010Z,10.90
2018-02-22T16:42:40.242Z,11.13
2018-02-22T16:45:08.525Z,11.17
2018-02-22T16:47:37.620Z,12.00
2018-02-22T16:50:06.071Z,11.47
2018-02-22T16:52:38.844Z,12.37
2018-02-22T16:55:07.224Z,13.07
2018-02-22T16:57:37.058Z,11.87
2018-02-22T17:00:06.133Z,14.30
2018-02-22T17:02:35.382Z,13.63
2018-02-22T17:05:08.250Z,12.87
2018-02-22T17:07:37.168Z,13.03
2018-02-22T17:10:05.503Z,13.80
2018-02-22T17:12:34.546Z,12.30
2018-02-22T17:15:03.068Z,14.40
2018-02-22T17:17:43.424Z,13.30
2018-02-22T17:20:12.549Z,12.43
2018-02-22T17:22:40.856Z,13.00
2018-02-22T17:25:09.141Z,12.33
2018-02-22T17:27:42.978Z,13.77
2018-02-22T17:30:16.899Z,13.73
2018-02-22T17:32:45.234Z,12.43
2018-02-22T17:38:40.433Z,14.07
2018-02-22T17:41:11.590Z,12.43
2018-02-22T17:43:39.900Z,13.30
2018-02-22T17:46:08.241Z,13.20
2018-02-22T17:48:37.210Z,14.10
2018-02-22T17:51:05.609Z,13.03
2018-02-22T17:53:33.845Z,14.20
2018-02-22T17:56:04.307Z,12.63
2018-02-22T17:58:32.921Z,12.23
2018-02-22T18:01:01.270Z,13.70
2018-02-22T18:03:30.131Z,13.43
2018-02-22T18:05:58.463Z,12.07
2018-02-22T18:08:26.755Z,12.47
2018-02-22T18:10:55.285Z,12.40
2018-02-22T18:14:28.541Z,13.50
2018-02-22T18:16:57.756Z,12.90
2018-02-22T18:19:26.103Z,12.80
2018-02-22T18:21:54.341Z,15.13
2018-02-22T18:24:23.247Z,12.97
2018-02-22T18:26:56.160Z,13.03
2018-02-22T18:29:24.612Z,13.30
2018-02-22T18:31:54.595Z,13.90
2018-02-22T18:34:23.702Z,13.70
2018-02-22T18:36:53.083Z,13.03
2018-02-22T18:39:27.536Z,13.50
2018-02-22T18:41:56.030Z,13.50
2018-02-22T18:44:30.335Z,13.20
2018-02-22T18:46:58.711Z,12.80
2018-02-22T18:49:26.954Z,14.23
2018-02-22T18:51:56.205Z,12.60
2018-02-22T18:54:24.466Z,13.07
2018-02-22T18:56:57.275Z,12.47
2018-02-22T18:59:25.569Z,12.50
2018-02-22T19:01:53.859Z,12.77
2018-02-22T19:04:22.169Z,13.17
2018-02-22T19:06:51.282Z,14.20
2018-02-22T19:09:20.715Z,14.70
2018-02-22T19:11:49.110Z,12.57
2018-02-22T19:14:18.555Z,12.73
2018-02-22T19:16:46.943Z,13.03
2018-02-22T19:19:15.207Z,21.47
2018-02-22T19:21:43.631Z,13.87
2018-02-22T19:24:11.936Z,13.53
2018-02-22T19:26:41.046Z,13.07
2018-02-22T19:29:09.479Z,13.80
2018-02-22T19:31:37.822Z,13.87
2018-02-22T19:34:06.217Z,12.77
2018-02-22T19:36:34.577Z,12.97
2018-02-22T19:39:03.615Z,12.70
2018-02-22T19:41:32.010Z,13.47
2018-02-22T19:44:00.430Z,12.33
2018-02-22T19:46:29.740Z,13.20
2018-02-22T19:49:02.179Z,13.50
2018-02-22T19:51:31.104Z,13.03
2018-02-22T19:53:59.438Z,13.37
2018-02-22T19:56:27.770Z,12.57
2018-02-22T19:58:56.037Z,13.13
2018-02-22T20:01:24.380Z,12.60
2018-02-22T20:03:53.601Z,13.87
2018-02-22T20:06:22.920Z,12.40
2018-02-22T20:08:55.260Z,13.70
2018-02-22T20:11:23.519Z,12.40
2018-02-22T20:13:52.212Z,13.07
2018-02-22T20:16:20.601Z,13.20
2018-02-22T20:18:49.854Z,11.10
2018-02-22T20:21:18.896Z,13.07
2018-02-22T20:23:47.368Z,12.87
2018-02-22T20:26:16.039Z,12.10
2018-02-22T20:28:44.475Z,13.83
2018-02-22T20:31:12.808Z,13.37
2018-02-22T20:33:41.049Z,11.57
2018-02-22T20:36:10.154Z,12.80
2018-02-22T20:38:38.446Z,12.53
2018-02-22T20:41:06.713Z,12.93
2018-02-22T20:43:35.818Z,12.60
2018-02-22T20:46:04.247Z,11.63
2018-02-22T20:48:32.502Z,12.37
2018-02-22T20:51:02.805Z,11.40
2018-02-22T20:53:35.493Z,11.63
2018-02-22T20:56:04.001Z,12.20
2018-02-22T20:58:33.075Z,11.80
2018-02-22T21:01:01.475Z,13.50
2018-02-22T21:03:29.751Z,13.13
2018-02-22T21:05:59.680Z,12.90
2018-02-22T21:08:30.024Z,13.07
2018-02-22T21:10:58.332Z,12.73
2018-02-22T21:13:26.652Z,12.73
2018-02-22T21:15:54.937Z,12.77
2018-02-22T21:18:23.553Z,12.23
2018-02-22T21:20:52.297Z,12.73
2018-02-22T21:23:20.662Z,14.13
2018-02-22T21:25:48.927Z,12.90
2018-02-22T21:28:18.030Z,12.03
2018-02-22T21:30:46.306Z,13.50
2018-02-22T21:33:14.553Z,11.63
2018-02-22T21:35:42.889Z,12.60
2018-02-22T21:38:11.147Z,12.07
2018-02-22T21:40:39.401Z,12.37
2018-02-22T21:43:08.940Z,12.97
2018-02-22T21:45:38.234Z,13.70
2018-02-22T21:48:08.566Z,12.80
2018-02-22T21:50:37.693Z,12.93
2018-02-22T21:53:07.537Z,12.97
2018-02-22T21:55:36.684Z,14.40
2018-02-22T21:58:04.968Z,13.53
2018-02-22T22:00:33.215Z,13.07
2018-02-22T22:03:01.482Z,17.43
2018-02-22T22:05:29.729Z,13.10
2018-02-22T22:07:58.810Z,14.23
2018-02-22T22:10:27.068Z,13.00
2018-02-22T22:12:55.391Z,13.40
2018-02-22T22:15:23.670Z,13.50
2018-02-22T22:17:51.926Z,13.60
2018-02-22T22:20:21.086Z,13.60
2018-02-22T22:22:50.870Z,14.23
2018-02-22T22:25:19.285Z,13.03
2018-02-22T22:27:49.141Z,14.47
2018-02-22T22:30:18.186Z,13.47
2018-02-22T22:32:46.521Z,15.50
2018-02-22T22:35:14.819Z,13.37
2018-02-22T22:37:44.085Z,13.97
2018-02-22T22:40:13.103Z,14.50
2018-02-22T22:42:41.394Z,12.87
2018-02-22T22:45:09.736Z,14.77
2018-02-22T22:47:37.998Z,13.17
2018-02-22T22:50:07.000Z,13.97
2018-02-22T22:52:35.261Z,12.63
2018-02-22T22:55:03.508Z,12.60
2018-02-22T22:57:33.529Z,14.10
2018-02-22T23:00:01.906Z,13.83
2018-02-22T23:02:30.219Z,13.90
2018-02-22T23:04:58.493Z,14.23
2018-02-22T23:07:27.738Z,13.03
2018-02-22T23:09:56.012Z,14.13
2018-02-22T23:12:24.349Z,13.10
2018-02-22T23:14:52.754Z,13.50
2018-02-22T23:17:21.857Z,14.70
2018-02-22T23:19:50.094Z,14.37
2018-02-22T23:22:19.193Z,14.20
2018-02-22T23:24:48.302Z,14.43
2018-02-22T23:27:16.553Z,15.47
2018-02-22T23:29:45.690Z,13.13
2018-02-22T23:32:13.921Z,14.40
2018-02-22T23:34:43.046Z,12.93
2018-02-22T23:37:12.143Z,13.60
2018-02-22T23:39:41.022Z,16.47
2018-02-22T23:42:22.854Z,12.30
2018-02-22T23:44:51.142Z,12.90
2018-02-22T23:47:19.394Z,13.17
2018-02-22T23:49:47.633Z,12.17
2018-02-22T23:52:16.796Z,12.13
2018-02-22T23:54:45.042Z,12.20
2018-02-22T23:57:13.312Z,12.57
2018-02-22T23:59:41.562Z,11.40
